Time;durP1;ratioP1;P1;durP2;ratioP2;P2;SDS_P1;SDS_P2;PMS_P1;PMS_P2;Temp;Humidity;BMP_temperature;BMP_pressure;BME280_temperature;BME280_humidity;BME280_pressure;Samples;Min_cycle;Max_cycle;Signal;HPM_P1;HPM_P2
2022/06/12 00:00:43;;;;;;;10.73;7.38;;;;;;;20.45;66.23;101467.41;5052340;28;20045;-51
2022/06/12 00:03:13;;;;;;;9.85;7.35;;;;;;;20.44;66.33;101461.28;5069495;28;20105;-51
2022/06/12 00:05:42;;;;;;;10.98;7.57;;;;;;;20.43;66.50;101459.56;5072751;28;20049;-52
2022/06/12 00:08:10;;;;;;;10.35;7.80;;;;;;;20.40;66.47;101458.81;5072636;28;20044;-52
2022/06/12 00:10:41;;;;;;;11.73;7.97;;;;;;;20.39;66.55;101454.44;5073185;28;20606;-52
2022/06/12 00:13:11;;;;;;;10.65;7.88;;;;;;;20.36;66.76;101447.50;5076417;28;20473;-54
2022/06/12 00:15:38;;;;;;;9.18;7.25;;;;;;;20.36;66.84;101451.91;5076490;28;20052;-53
2022/06/12 00:18:05;;;;;;;11.35;7.45;;;;;;;20.34;66.85;101451.13;5076762;28;20114;-51
2022/06/12 00:20:32;;;;;;;10.73;7.65;;;;;;;20.32;66.95;101451.19;5076622;28;20353;-52
2022/06/12 00:23:00;;;;;;;10.32;7.72;;;;;;;20.30;66.93;101452.16;5076269;28;20052;-51
2022/06/12 00:25:30;;;;;;;11.48;7.28;;;;;;;20.26;67.05;101439.97;5076692;28;20118;-51
2022/06/12 00:27:58;;;;;;;9.18;6.72;;;;;;;20.24;67.05;101442.69;5076205;28;20121;-51
2022/06/12 00:30:26;;;;;;;9.68;6.82;;;;;;;20.21;67.17;101441.94;5076249;28;20052;-51
2022/06/12 00:32:54;;;;;;;10.65;7.68;;;;;;;20.20;67.21;101446.34;5076359;28;20487;-51
2022/06/12 00:35:23;;;;;;;11.23;7.90;;;;;;;20.21;67.25;101447.19;5075979;28;20358;-52
2022/06/12 00:37:51;;;;;;;12.77;7.40;;;;;;;20.21;67.32;101436.66;5075832;28;20172;-50
2022/06/12 00:40:18;;;;;;;10.63;7.30;;;;;;;20.20;67.31;101434.94;5076051;28;20048;-53
2022/06/12 00:42:49;;;;;;;9.77;6.60;;;;;;;20.18;67.40;101437.66;5076264;28;20229;-54
2022/06/12 00:45:42;;;;;;;10.77;6.90;;;;;;;20.18;67.39;101435.88;5076262;28;20064;-50
2022/06/12 00:48:13;;;;;;;12.00;7.03;;;;;;;20.16;67.37;101439.47;5076164;28;20049;-52
2022/06/12 00:50:44;;;;;;;11.38;6.63;;;;;;;20.14;67.52;101436.91;5075766;28;20445;-51
2022/06/12 00:53:17;;;;;;;7.70;6.22;;;;;;;20.13;67.39;101437.81;5075723;28;20465;-51
2022/06/12 00:55:52;;;;;;;8.90;5.93;;;;;;;20.13;67.67;101440.44;5075419;28;20106;-51
2022/06/12 00:58:24;;;;;;;6.43;5.10;;;;;;;20.12;67.49;101432.59;5076035;28;20067;-54
2022/06/12 01:00:53;;;;;;;7.40;5.55;;;;;;;20.11;67.67;101429.13;5075507;28;20114;-54
2022/06/12 01:03:21;;;;;;;6.35;5.03;;;;;;;20.10;67.61;101430.03;5075603;28;20404;-54
2022/06/12 01:08:32;;;;;;;9.45;4.63;;;;;;;20.09;67.56;101427.47;5075474;28;20063;-54
2022/06/12 01:11:05;;;;;;;5.97;4.55;;;;;;;20.10;67.66;101427.41;5074674;28;20056;-50
2022/06/12 01:13:36;;;;;;;6.68;5.13;;;;;;;20.12;67.51;101422.94;5075271;28;20475;-53
2022/06/12 01:16:08;;;;;;;6.10;4.72;;;;;;;20.15;67.66;101417.56;5075576;28;20052;-52
2022/06/12 01:18:41;;;;;;;6.50;4.72;;;;;;;20.16;67.43;101413.16;5075187;28;20469;-50
2022/06/12 01:21:30;;;;;;;5.95;4.25;;;;;;;20.15;67.32;101412.28;5075164;28;20465;-51
2022/06/12 01:24:14;;;;;;;8.75;4.45;;;;;;;20.14;67.51;101409.72;5075593;28;20143;-50
2022/06/12 01:26:59;;;;;;;5.18;4.30;;;;;;;20.11;67.51;101402.78;5075648;28;20059;-52
2022/06/12 01:29:34;;;;;;;5.25;3.95;;;;;;;20.10;67.64;101402.84;5054955;28;20064;-50
2022/06/12 01:32:04;;;;;;;;;;;;;;;20.01;67.61;101409.31;5055757;28;20417;-53
2022/06/12 01:34:38;;;;;;;5.95;4.50;;;;;;;20.02;67.68;101405.78;5071124;28;19925;-52
2022/06/12 01:37:14;;;;;;;4.68;3.97;;;;;;;20.04;67.52;101403.09;5075372;28;20059;-52
2022/06/12 01:39:46;;;;;;;9.07;4.57;;;;;;;20.01;67.66;101406.69;5075393;28;20055;-51
2022/06/12 01:42:24;;;;;;;6.32;4.43;;;;;;;20.00;67.63;101407.59;5075169;28;20052;-52
2022/06/12 01:45:05;;;;;;;4.45;3.97;;;;;;;19.99;67.62;101405.88;5074528;28;20376;-54
2022/06/12 01:47:39;;;;;;;6.75;4.03;;;;;;;19.95;67.93;101404.28;5074209;28;20048;-50
2022/06/12 01:50:13;;;;;;;6.65;4.45;;;;;;;19.94;67.74;101407.84;5074555;28;20102;-53
2022/06/12 01:52:51;;;;;;;4.40;3.90;;;;;;;19.94;67.87;101412.25;5059281;28;20053;-52
2022/06/12 01:55:32;;;;;;;5.90;4.30;;;;;;;19.94;67.79;101407.84;5054044;28;20355;-54
2022/06/12 01:58:07;;;;;;;4.90;3.85;;;;;;;19.94;67.72;101407.84;5054467;28;20053;-53
2022/06/12 02:00:37;;;;;;;5.70;4.32;;;;;;;19.94;67.71;101413.09;5054207;28;20122;-50
2022/06/12 02:03:11;;;;;;;5.38;4.07;;;;;;;19.93;67.65;101413.16;5054387;28;20049;-52
2022/06/12 02:05:46;;;;;;;5.05;3.88;;;;;;;19.88;67.79;101409.81;5055230;28;20049;-54
2022/06/12 02:08:18;;;;;;;5.15;4.10;;;;;;;19.86;67.80;101415.16;5054922;28;20053;-51
2022/06/12 02:10:49;;;;;;;6.80;3.72;;;;;;;19.87;67.96;101418.63;5055396;28;20057;-51
2022/06/12 02:13:21;;;;;;;6.97;4.30;;;;;;;19.87;67.86;101421.25;5054366;28;20072;-54
2022/06/12 02:15:56;;;;;;;6.55;4.22;;;;;;;19.85;67.86;101418.69;5054796;28;20045;-50
2022/06/12 02:18:29;;;;;;;5.03;3.80;;;;;;;19.81;68.09;101417.09;5054960;28;20080;-50
2022/06/12 02:21:01;;;;;;;4.45;4.03;;;;;;;19.80;68.20;101410.09;5060762;28;20049;-52
2022/06/12 02:23:35;;;;;;;7.10;5.05;;;;;;;19.76;68.23;101413.72;5054607;28;20052;-50
2022/06/12 02:26:03;;;;;;;6.18;4.75;;;;;;;19.73;68.39;101416.47;5054541;28;20500;-51
2022/06/12 02:28:37;;;;;;;5.75;4.15;;;;;;;19.73;68.50;101422.59;5054108;28;20061;-51
2022/06/12 02:31:08;;;;;;;8.73;4.55;;;;;;;19.70;68.51;101421.84;5073215;28;20745;-53
2022/06/12 02:33:42;;;;;;;5.93;5.13;;;;;;;19.69;68.51;101414.88;5073833;28;20126;-53
2022/06/12 02:36:13;;;;;;;5.50;4.68;;;;;;;19.70;68.78;101419.22;5074331;28;20044;-49
2022/06/12 02:38:44;;;;;;;5.45;4.72;;;;;;;19.69;68.63;101422.75;5074309;28;20052;-50
2022/06/12 02:41:18;;;;;;;5.45;4.80;;;;;;;19.67;68.59;101428.06;5074086;28;20048;-53
2022/06/12 02:43:48;;;;;;;6.40;5.40;;;;;;;19.67;68.59;101424.59;5074181;28;20053;-53
2022/06/12 02:46:19;;;;;;;6.40;5.00;;;;;;;19.67;68.70;101429.84;5074279;28;20435;-51
2022/06/12 02:48:46;;;;;;;6.03;4.90;;;;;;;19.64;68.74;101430.81;5074016;28;20052;-51
2022/06/12 02:51:22;;;;;;;7.43;4.70;;;;;;;19.66;68.81;101428.13;5074040;28;20197;-51
2022/06/12 02:54:02;;;;;;;7.78;5.60;;;;;;;19.66;68.77;101434.25;5074166;28;20056;-50
2022/06/12 02:56:42;;;;;;;6.53;4.88;;;;;;;19.69;68.70;101435.91;5073844;28;20040;-51
2022/06/12 02:59:24;;;;;;;9.18;5.70;;;;;;;19.71;68.63;101431.44;5073862;28;20109;-52
2022/06/12 03:02:01;;;;;;;6.53;5.53;;;;;;;19.74;68.77;101439.22;5073685;28;20048;-50
2022/06/12 03:04:35;;;;;;;8.30;5.28;;;;;;;19.77;68.48;101433.88;5074118;28;20044;-53
2022/06/12 03:07:03;;;;;;;7.93;5.88;;;;;;;19.78;68.47;101433.84;5073668;28;20515;-50
2022/06/12 03:09:30;;;;;;;7.68;5.43;;;;;;;19.83;68.38;101436.31;5073987;28;20121;-50
2022/06/12 03:11:56;;;;;;;7.93;6.55;;;;;;;19.87;68.18;101442.31;5073988;28;20048;-50
2022/06/12 03:14:25;;;;;;;9.05;6.30;;;;;;;19.91;67.98;101443.91;5073596;28;20102;-50
2022/06/12 03:16:53;;;;;;;7.68;6.03;;;;;;;19.94;68.03;101444.66;5073618;28;20055;-50
2022/06/12 03:19:24;;;;;;;8.35;6.20;;;;;;;19.99;67.82;101442.72;5073506;28;20048;-52
2022/06/12 03:22:05;;;;;;;10.00;6.53;;;;;;;20.05;67.57;101447.75;5073505;28;20538;-51
2022/06/12 03:24:53;;;;;;;7.00;5.60;;;;;;;20.10;67.19;101440.56;5073539;28;20052;-52
2022/06/12 03:27:49;;;;;;;7.07;5.78;;;;;;;20.16;67.00;101440.34;5072888;28;20406;-52
2022/06/12 03:30:22;;;;;;;6.65;4.95;;;;;;;20.22;66.65;101439.25;5073281;28;20067;-51
2022/06/12 03:32:56;;;;;;;8.07;5.82;;;;;;;20.31;66.44;101440.69;5073544;28;20074;-50
2022/06/12 03:35:34;;;;;;;7.10;4.93;;;;;;;20.40;66.12;101445.66;5073543;28;20061;-50
2022/06/12 03:38:09;;;;;;;7.07;4.70;;;;;;;20.50;65.75;101444.38;5072999;28;20067;-50
2022/06/12 03:40:44;;;;;;;11.43;5.78;;;;;;;20.61;65.33;101447.47;5073277;28;20048;-50
2022/06/12 03:43:13;;;;;;;;;;;;;;;20.66;65.17;101450.75;5073873;28;20052;-50
2022/06/12 03:45:45;;;;;;;10.43;4.53;;;;;;;20.82;64.49;101444.91;5072000;28;19935;-50
2022/06/12 03:48:23;;;;;;;6.35;3.88;;;;;;;20.98;63.78;101446.03;5073001;28;20404;-50
2022/06/12 03:51:03;;;;;;;8.73;5.28;;;;;;;21.11;63.29;101447.22;5072824;28;20056;-50
2022/06/12 03:53:38;;;;;;;10.20;5.30;;;;;;;21.25;62.77;101450.19;5073569;28;20098;-50
2022/06/12 03:59:01;;;;;;;10.15;5.20;;;;;;;21.56;61.76;101454.19;5073005;28;20401;-50
2022/06/12 04:01:31;;;;;;;9.98;4.43;;;;;;;21.72;61.22;101456.09;5072921;28;20060;-50
2022/06/12 04:04:01;;;;;;;9.20;4.00;;;;;;;21.88;60.59;101453.69;5072880;28;20056;-50
2022/06/12 04:06:31;;;;;;;8.90;4.28;;;;;;;22.06;59.79;101456.44;5073023;28;20056;-51
2022/06/12 04:09:04;;;;;;;5.15;3.60;;;;;;;22.23;59.22;101451.25;5073166;28;20061;-53
2022/06/12 04:11:35;;;;;;;7.38;3.95;;;;;;;22.45;58.47;101451.16;5073073;28;20118;-50
2022/06/12 04:14:06;;;;;;;9.27;4.25;;;;;;;22.63;57.74;101445.00;5072953;28;20049;-52
2022/06/12 04:16:38;;;;;;;8.30;3.72;;;;;;;22.83;57.01;101452.00;5052671;28;20473;-51
2022/06/12 04:19:08;;;;;;;7.78;3.50;;;;;;;23.01;56.33;101456.44;5052907;28;20174;-53
2022/06/12 04:21:41;;;;;;;5.80;3.30;;;;;;;23.20;55.61;101445.78;5069752;28;20453;-54
2022/06/12 04:24:16;;;;;;;8.75;4.05;;;;;;;23.40;54.76;101452.72;5072993;28;20110;-52
2022/06/12 04:26:48;;;;;;;9.07;3.53;;;;;;;23.58;54.17;101449.19;5072316;28;20059;-50
2022/06/12 04:29:25;;;;;;;6.53;3.35;;;;;;;23.75;53.18;101446.53;5072369;28;20065;-54
2022/06/12 04:31:55;;;;;;;6.22;2.95;;;;;;;23.90;52.70;101448.38;5072425;28;20428;-50
2022/06/12 04:34:26;;;;;;;6.35;2.92;;;;;;;24.07;52.15;101447.50;5072772;28;20419;-50
2022/06/12 04:36:55;;;;;;;6.00;3.28;;;;;;;24.23;51.56;101447.53;5072367;28;20331;-51
2022/06/12 04:39:25;;;;;;;5.85;3.03;;;;;;;24.37;51.13;101437.06;5072442;28;20056;-50
2022/06/12 04:41:52;;;;;;;8.20;2.92;;;;;;;24.51;50.59;101442.47;5072571;28;20060;-50
2022/06/12 04:44:20;;;;;;;7.80;2.80;;;;;;;24.65;50.13;101440.84;5072162;28;20389;-52
2022/06/12 04:46:49;;;;;;;9.95;3.00;;;;;;;24.81;49.54;101447.00;5072201;28;20056;-53
2022/06/12 04:49:19;;;;;;;5.75;2.85;;;;;;;24.96;49.08;101451.41;5072508;28;20049;-52
2022/06/12 04:51:48;;;;;;;9.85;2.50;;;;;;;25.11;48.88;101447.09;5072686;28;20049;-52
2022/06/12 04:54:15;;;;;;;6.28;3.15;;;;;;;25.25;48.84;101448.94;5072317;28;20056;-50
2022/06/12 04:56:43;;;;;;;4.75;2.85;;;;;;;25.45;48.27;101453.91;5073058;28;20064;-51
2022/06/12 04:59:11;;;;;;;8.02;2.70;;;;;;;25.65;47.25;101448.31;5076148;28;20052;-50
2022/06/12 05:01:39;;;;;;;8.98;2.92;;;;;;;25.85;46.51;101451.56;5075827;28;20063;-54
2022/06/12 05:04:06;;;;;;;7.45;2.70;;;;;;;26.00;45.93;101455.94;5075869;28;20135;-51
2022/06/12 05:06:35;;;;;;;7.32;2.70;;;;;;;26.15;45.45;101444.41;5075991;28;20049;-51
2022/06/12 05:09:04;;;;;;;5.00;2.47;;;;;;;26.31;45.27;101455.78;5076201;28;20106;-51
2022/06/12 05:11:32;;;;;;;4.60;1.92;;;;;;;26.48;44.63;101451.22;5075870;28;20101;-51
2022/06/12 05:13:59;;;;;;;5.65;2.40;;;;;;;26.58;44.13;101450.56;5076169;28;20098;-50
2022/06/12 05:16:32;;;;;;;8.07;2.55;;;;;;;26.69;43.63;101455.19;5075481;28;20504;-53
2022/06/12 05:19:00;;;;;;;5.93;2.85;;;;;;;26.84;43.16;101454.19;5070817;28;20143;-52
2022/06/12 05:21:30;;;;;;;10.70;2.70;;;;;;;26.94;43.21;101449.97;5074141;28;20056;-51
2022/06/12 05:23:57;;;;;;;7.13;2.50;;;;;;;27.08;42.62;101450.91;5075723;28;20748;-51
2022/06/12 05:26:26;;;;;;;6.18;2.42;;;;;;;27.18;41.92;101446.69;5075654;28;20041;-52
2022/06/12 05:28:55;;;;;;;5.95;2.15;;;;;;;27.31;41.82;101439.59;5075547;28;20051;-53
2022/06/12 05:31:22;;;;;;;6.30;2.13;;;;;;;27.46;41.70;101441.19;5075369;28;20364;-50
2022/06/12 05:33:49;;;;;;;6.18;2.10;;;;;;;27.59;41.18;101441.25;5075260;28;20063;-51
2022/06/12 05:36:17;;;;;;;7.68;2.50;;;;;;;27.69;40.85;101446.81;5075290;28;20369;-53
2022/06/12 05:38:45;;;;;;;6.72;2.28;;;;;;;27.80;40.67;101445.13;5075307;28;20514;-51
2022/06/12 05:41:13;;;;;;;8.48;2.50;;;;;;;27.92;40.45;101446.06;5075249;28;20080;-51
2022/06/12 05:43:42;;;;;;;7.90;2.33;;;;;;;28.04;40.47;101437.22;5075091;28;20578;-51
2022/06/12 05:46:09;;;;;;;7.30;2.20;;;;;;;28.19;39.81;101441.47;5074603;28;20044;-51
2022/06/12 05:48:36;;;;;;;4.95;1.75;;;;;;;28.30;39.45;101437.22;5075242;28;20052;-50
2022/06/12 05:51:04;;;;;;;6.32;2.10;;;;;;;28.40;39.36;101432.94;5074814;28;20643;-51
2022/06/12 05:53:33;;;;;;;7.72;2.15;;;;;;;28.48;39.21;101446.56;5075366;28;20181;-50
2022/06/12 05:56:01;;;;;;;7.20;2.55;;;;;;;28.57;39.11;101448.56;5074677;28;20378;-54
2022/06/12 05:58:30;;;;;;;5.40;2.58;;;;;;;28.69;38.71;101445.00;5075345;28;20056;-50
2022/06/12 06:00:59;;;;;;;5.40;2.00;;;;;;;28.77;38.17;101447.97;5075504;28;20052;-51
2022/06/12 06:03:26;;;;;;;5.93;2.15;;;;;;;28.85;37.61;101450.97;5074906;28;20599;-51
2022/06/12 06:05:57;;;;;;;7.13;2.15;;;;;;;28.89;37.44;101451.56;5075112;28;20048;-50
2022/06/12 06:08:24;;;;;;;5.90;1.92;;;;;;;28.96;37.18;101450.16;5074015;28;20412;-50
2022/06/12 06:10:51;;;;;;;6.97;2.58;;;;;;;29.06;36.73;101450.31;5075061;28;20052;-50
2022/06/12 06:13:18;;;;;;;4.97;2.08;;;;;;;29.16;36.91;101446.03;5074980;28;20109;-53
2022/06/12 06:15:47;;;;;;;6.80;2.30;;;;;;;29.27;36.14;101454.06;5074424;28;20041;-54
2022/06/12 06:18:15;;;;;;;5.38;2.05;;;;;;;29.34;35.92;101444.63;5074559;28;20117;-53
2022/06/12 06:20:42;;;;;;;6.15;1.85;;;;;;;29.42;35.89;101450.22;5074888;28;20044;-54
2022/06/12 06:23:09;;;;;;;4.60;2.03;;;;;;;29.50;35.62;101442.50;5065938;28;20114;-50
2022/06/12 06:25:37;;;;;;;6.63;2.08;;;;;;;29.58;35.15;101443.72;5074782;28;20052;-51
2022/06/12 06:28:06;;;;;;;7.43;1.95;;;;;;;29.64;34.86;101448.59;5074214;28;20155;-50
2022/06/12 06:30:33;;;;;;;9.75;1.65;;;;;;;29.73;34.05;101437.22;5074632;28;20517;-51
2022/06/12 06:33:00;;;;;;;6.72;2.05;;;;;;;29.72;33.83;101441.72;5074861;28;20782;-54
2022/06/12 06:35:28;;;;;;;6.20;1.75;;;;;;;29.73;33.96;101445.25;5074736;28;20440;-52
2022/06/12 06:37:56;;;;;;;5.72;2.30;;;;;;;29.79;34.21;101442.09;5074948;28;20049;-52
2022/06/12 06:40:25;;;;;;;4.63;1.50;;;;;;;29.86;33.45;101448.66;5074441;28;20450;-51
2022/06/12 06:42:52;;;;;;;7.97;2.08;;;;;;;29.94;33.49;101450.72;5074396;28;20048;-53
2022/06/12 06:48:04;;;;;;;6.80;1.58;;;;;;;30.08;33.65;101448.69;5073269;28;20175;-54
2022/06/12 06:50:34;;;;;;;6.82;1.95;;;;;;;30.18;33.38;101442.59;5073711;28;20110;-53
2022/06/12 06:53:01;;;;;;;8.30;1.70;;;;;;;30.26;32.81;101445.56;5073399;28;20109;-54
2022/06/12 06:55:28;;;;;;;6.18;1.88;;;;;;;30.34;32.95;101449.31;5069485;28;20122;-51
2022/06/12 06:57:57;;;;;;;3.95;1.45;;;;;;;30.40;32.88;101447.97;5054165;28;20052;-52
2022/06/12 07:00:27;;;;;;;7.25;1.75;;;;;;;30.44;32.82;101444.91;5054205;28;20049;-51
2022/06/12 07:02:54;;;;;;;6.43;1.88;;;;;;;30.49;32.72;101444.53;5069094;28;20506;-52
2022/06/12 07:05:21;;;;;;;7.18;1.80;;;;;;;30.50;32.89;101438.22;5074070;28;20060;-51
2022/06/12 07:07:49;;;;;;;5.13;1.63;;;;;;;30.63;32.07;101438.94;5073976;28;20048;-51
2022/06/12 07:10:20;;;;;;;3.33;1.40;;;;;;;30.75;31.99;101432.63;5073419;28;20102;-51
2022/06/12 07:12:47;;;;;;;6.40;1.70;;;;;;;30.91;31.68;101436.69;5060752;28;20053;-54
2022/06/12 07:15:14;;;;;;;6.85;1.52;;;;;;;31.01;31.08;101432.28;5066782;28;20539;-52
2022/06/12 07:17:42;;;;;;;5.70;1.35;;;;;;;31.08;30.00;101433.44;5067618;28;20052;-50
2022/06/12 07:20:12;;;;;;;5.07;1.75;;;;;;;31.16;29.75;101425.66;5065437;28;20055;-51
2022/06/12 07:22:39;;;;;;;4.40;1.48;;;;;;;31.26;29.11;101431.97;5070821;28;20121;-51
2022/06/12 07:25:09;;;;;;;4.78;1.42;;;;;;;31.39;28.50;101431.75;5053218;28;20471;-51
2022/06/12 07:27:38;;;;;;;6.43;1.25;;;;;;;31.50;28.86;101425.47;5052984;28;20071;-52
2022/06/12 07:30:06;;;;;;;4.93;1.38;;;;;;;31.59;28.48;101433.56;5063446;28;20131;-51
2022/06/12 07:32:34;;;;;;;6.45;1.60;;;;;;;31.65;28.75;101434.88;5063824;28;20067;-50
2022/06/12 07:35:03;;;;;;;4.15;1.15;;;;;;;31.77;29.20;101436.56;5073911;28;20121;-52
2022/06/12 07:37:30;;;;;;;6.07;1.40;;;;;;;31.86;28.62;101440.25;5073703;28;20135;-50
2022/06/12 07:39:58;;;;;;;7.10;1.55;;;;;;;31.98;28.21;101445.41;5073432;28;20373;-51
2022/06/12 07:42:26;;;;;;;4.30;1.33;;;;;;;32.08;28.53;101439.22;5073158;28;20052;-51
2022/06/12 07:44:53;;;;;;;5.55;1.38;;;;;;;32.13;28.95;101442.34;5073535;28;20052;-55
2022/06/12 07:47:20;;;;;;;4.32;1.20;;;;;;;32.23;27.88;101437.88;5073577;28;20056;-52
2022/06/12 07:49:47;;;;;;;5.72;1.25;;;;;;;32.36;27.61;101443.91;5071772;28;20143;-51
2022/06/12 07:52:15;;;;;;;6.50;1.65;;;;;;;32.44;27.50;101448.56;5073495;28;20052;-51
2022/06/12 07:54:42;;;;;;;3.67;1.33;;;;;;;32.46;27.48;101449.28;5073540;28;20063;-50
2022/06/12 07:57:09;;;;;;;3.25;1.45;;;;;;;32.49;27.34;101449.84;5073126;28;20049;-50
2022/06/12 07:59:37;;;;;;;3.97;1.23;;;;;;;32.54;27.25;101447.59;5068339;28;20052;-51
2022/06/12 08:02:06;;;;;;;5.90;1.42;;;;;;;32.59;26.99;101445.34;5067919;28;20055;-51
2022/06/12 08:04:38;;;;;;;5.55;1.50;;;;;;;32.70;27.21;101449.75;5073259;28;20044;-52
2022/06/12 08:07:05;;;;;;;3.90;1.48;;;;;;;32.80;27.54;101441.75;5073208;28;20049;-53
2022/06/12 08:09:32;;;;;;;5.40;1.50;;;;;;;32.81;27.29;101438.09;5073517;28;20106;-52
2022/06/12 08:12:02;;;;;;;7.10;1.20;;;;;;;32.84;26.62;101432.44;5073042;28;20056;-55
2022/06/12 08:14:29;;;;;;;5.40;1.48;;;;;;;32.92;26.20;101440.63;5061919;28;20114;-52
2022/06/12 08:16:57;;;;;;;5.82;1.20;;;;;;;32.99;25.77;101436.41;5071583;28;20106;-50
2022/06/12 08:22:09;;;;;;;3.33;1.38;;;;;;;32.91;25.35;101441.63;5069262;28;20218;-50
2022/06/12 08:24:37;;;;;;;4.75;1.27;;;;;;;32.84;25.27;101443.19;5071667;28;20064;-51
2022/06/12 08:27:05;;;;;;;2.60;1.00;;;;;;;32.88;25.10;101439.22;5061596;28;20048;-54
2022/06/12 08:29:32;;;;;;;2.42;0.70;;;;;;;32.97;24.62;101442.91;5068247;28;20056;-52
2022/06/12 08:32:06;;;;;;;3.85;1.05;;;;;;;33.08;24.26;101440.91;5074882;28;20079;-52
2022/06/12 08:34:37;;;;;;;2.22;1.15;;;;;;;33.13;24.91;101441.34;5076761;28;20582;-51
2022/06/12 08:37:10;;;;;;;3.05;0.80;;;;;;;33.21;24.01;101435.25;5076999;28;20450;-54
2022/06/12 08:39:37;;;;;;;3.85;1.13;;;;;;;33.32;24.48;101439.69;5076283;28;20392;-52
2022/06/12 08:42:11;;;;;;;3.50;0.90;;;;;;;33.38;24.19;101447.16;5069489;28;20365;-52
2022/06/12 08:44:47;;;;;;;4.18;1.17;;;;;;;33.41;23.62;101446.88;5068484;28;20040;-54
2022/06/12 08:47:26;;;;;;;3.55;1.02;;;;;;;33.42;23.78;101441.38;5076468;28;20150;-51
2022/06/12 08:49:59;;;;;;;2.40;1.08;;;;;;;33.42;24.47;101443.19;5076654;28;20049;-52
2022/06/12 08:52:32;;;;;;;3.30;1.20;;;;;;;33.53;24.58;101445.72;5078000;28;20048;-52
2022/06/12 08:55:08;;;;;;;2.15;1.05;;;;;;;33.94;23.88;101443.66;5078201;28;20420;-51
2022/06/12 08:57:41;;;;;;;3.08;1.13;;;;;;;34.42;23.41;101452.41;5060255;28;20068;-51
2022/06/12 09:00:12;;;;;;;8.82;1.00;;;;;;;34.56;23.54;101461.81;5058584;28;20044;-53
2022/06/12 09:02:43;;;;;;;4.18;1.20;;;;;;;34.08;23.86;101451.25;5068293;28;20052;-52
2022/06/12 09:05:15;;;;;;;3.35;1.00;;;;;;;33.81;23.83;101450.16;5075275;28;20064;-52
2022/06/12 09:07:49;;;;;;;5.03;1.25;;;;;;;33.67;24.01;101452.47;5074930;28;20055;-54
2022/06/12 09:10:20;;;;;;;;;;;;;;;33.45;23.23;101453.66;5074564;28;20048;-55
2022/06/12 09:12:52;;;;;;;3.75;1.00;;;;;;;33.36;23.50;101454.53;5074451;28;19924;-51
2022/06/12 09:15:25;;;;;;;4.47;0.70;;;;;;;33.30;23.70;101449.66;5074539;28;20052;-51
2022/06/12 09:18:02;;;;;;;3.22;1.08;;;;;;;33.11;23.22;101451.38;5076558;28;20048;-51
2022/06/12 09:20:38;;;;;;;3.15;1.10;;;;;;;33.00;23.26;101448.84;5058596;28;20179;-53
2022/06/12 09:23:14;;;;;;;3.00;0.90;;;;;;;33.00;23.67;101438.09;5057133;28;20053;-52
2022/06/12 09:25:48;;;;;;;2.92;0.95;;;;;;;32.99;24.01;101436.41;5076220;28;20075;-52
2022/06/12 09:28:23;;;;;;;4.85;1.08;;;;;;;32.97;24.25;101437.53;5076955;28;20082;-54
2022/06/12 09:30:58;;;;;;;4.40;1.10;;;;;;;32.89;24.06;101441.78;5077193;28;20045;-52
2022/06/12 09:33:36;;;;;;;3.05;1.00;;;;;;;32.68;24.38;101448.19;5077528;28;20052;-51
2022/06/12 09:36:28;;;;;;;6.35;1.33;;;;;;;32.52;23.86;101433.47;5077124;28;20118;-54
2022/06/12 09:39:03;;;;;;;3.70;0.93;;;;;;;32.45;24.74;101437.69;5077311;28;20044;-54
2022/06/12 09:41:43;;;;;;;3.83;1.17;;;;;;;32.45;24.38;101432.34;5076531;28;20084;-51
2022/06/12 09:44:15;;;;;;;2.63;0.93;;;;;;;32.45;25.15;101426.97;5075445;28;20079;-52
2022/06/12 09:46:53;;;;;;;4.50;1.40;;;;;;;32.47;24.93;101433.03;5056972;28;20061;-54
2022/06/12 09:49:32;;;;;;;3.08;1.00;;;;;;;32.45;24.34;101429.66;5056871;28;20488;-53
2022/06/12 09:52:22;;;;;;;5.93;1.10;;;;;;;32.36;24.63;101427.78;5056420;28;20135;-52
2022/06/12 09:54:54;;;;;;;3.75;1.02;;;;;;;32.16;25.17;101428.66;5054314;28;20056;-51
2022/06/12 09:57:30;;;;;;;3.38;1.00;;;;;;;32.07;25.39;101427.66;5056125;28;20053;-51
2022/06/12 10:00:05;;;;;;;3.28;0.90;;;;;;;32.08;24.82;101428.50;5056003;28;20053;-51
2022/06/12 10:02:43;;;;;;;3.42;1.05;;;;;;;32.04;24.70;101416.34;5068100;28;20201;-51
2022/06/12 10:05:17;;;;;;;4.75;1.00;;;;;;;31.96;25.04;101425.91;5076104;28;20114;-50
2022/06/12 10:07:55;;;;;;;4.13;1.20;;;;;;;31.84;25.25;101435.03;5075831;28;20058;-51
2022/06/12 10:10:26;;;;;;;4.82;1.20;;;;;;;31.61;25.04;101420.91;5075057;28;20063;-52
2022/06/12 10:12:59;;;;;;;4.15;1.17;;;;;;;31.46;25.55;101416.00;5075686;28;20117;-50
2022/06/12 10:15:31;;;;;;;2.80;1.13;;;;;;;31.39;25.44;101416.53;5074828;28;20418;-51
2022/06/12 10:18:05;;;;;;;4.13;1.00;;;;;;;31.31;25.91;101419.03;5075532;28;20055;-52
2022/06/12 10:20:39;;;;;;;4.63;1.17;;;;;;;31.20;26.03;101408.34;5075624;28;20057;-51
2022/06/12 10:23:06;;;;;;;4.60;1.27;;;;;;;31.09;26.35;101411.06;5075007;28;20433;-50
2022/06/12 10:25:36;;;;;;;4.90;1.02;;;;;;;31.09;26.22;101403.88;5075104;28;20052;-53
2022/06/12 10:28:06;;;;;;;6.10;1.50;;;;;;;31.14;26.11;101403.47;5074575;28;20061;-54
2022/06/12 10:30:38;;;;;;;5.15;1.45;;;;;;;31.17;26.31;101407.75;5074967;28;20052;-53
2022/06/12 10:33:22;;;;;;;4.93;1.10;;;;;;;31.23;25.91;101400.09;5075178;28;20137;-50
2022/06/12 10:35:53;;;;;;;3.13;0.90;;;;;;;31.27;26.43;101401.53;5075033;28;20102;-53
2022/06/12 10:38:21;;;;;;;4.57;1.65;;;;;;;31.29;26.25;101398.72;5074692;28;20048;-54
2022/06/12 10:40:51;;;;;;;3.33;1.35;;;;;;;31.28;26.18;101402.38;5075058;28;20054;-49
2022/06/12 10:43:29;;;;;;;3.83;1.65;;;;;;;31.33;25.85;101406.34;5074928;28;20109;-50
2022/06/12 10:46:01;;;;;;;6.10;1.20;;;;;;;31.29;26.31;101394.19;5074265;28;20457;-51
2022/06/12 10:48:32;;;;;;;3.20;1.20;;;;;;;31.18;26.57;101402.28;5074992;28;20040;-49
2022/06/12 10:51:03;;;;;;;4.57;1.25;;;;;;;30.93;26.59;101397.25;5074661;28;20079;-51
2022/06/12 10:53:31;;;;;;;5.60;1.20;;;;;;;30.64;26.96;101392.47;5074264;28;20056;-50
2022/06/12 10:56:08;;;;;;;2.28;1.10;;;;;;;30.43;27.65;101395.06;5074034;28;20067;-52
2022/06/12 10:59:20;;;;;;;6.07;1.30;;;;;;;30.21;26.91;101380.91;5074258;28;20365;-53
2022/06/12 11:02:01;;;;;;;3.47;1.08;;;;;;;30.05;27.88;101379.44;5045872;28;20048;-55
2022/06/12 11:04:38;;;;;;;3.70;1.17;;;;;;;30.01;27.88;101382.44;5073999;28;20559;-52
2022/06/12 11:07:18;;;;;;;8.52;0.98;;;;;;;29.98;27.83;101372.84;5074181;28;20176;-55
2022/06/12 11:09:58;;;;;;;7.50;1.95;;;;;;;29.91;27.91;101376.97;5073906;28;20064;-54
2022/06/12 11:12:43;;;;;;;6.82;1.38;;;;;;;29.82;28.38;101377.72;5073320;28;20049;-53
2022/06/12 11:15:33;;;;;;;4.65;1.23;;;;;;;29.76;28.03;101383.53;5074033;28;20102;-52
2022/06/12 11:18:18;;;;;;;5.32;1.50;;;;;;;29.75;28.52;101387.19;5073384;28;20468;-53
2022/06/12 11:20:53;;;;;;;3.17;1.20;;;;;;;29.71;28.21;101375.06;5064574;28;20117;-51
2022/06/12 11:23:35;;;;;;;5.20;1.17;;;;;;;29.75;28.22;101376.50;5073650;28;20113;-52
2022/06/12 11:26:17;;;;;;;6.75;1.92;;;;;;;29.79;28.19;101377.97;5053795;28;20053;-51
2022/06/12 11:29:01;;;;;;;3.13;0.90;;;;;;;29.82;28.34;101372.38;5053162;28;20072;-51
2022/06/12 11:31:44;;;;;;;3.60;1.20;;;;;;;29.82;28.31;101372.38;5053555;28;20473;-55
2022/06/12 11:34:28;;;;;;;10.43;1.60;;;;;;;29.77;28.71;101363.88;5053262;28;20049;-51
2022/06/12 11:37:06;;;;;;;4.18;1.23;;;;;;;29.70;28.77;101354.66;5053662;28;20049;-52
2022/06/12 11:39:43;;;;;;;4.63;1.55;;;;;;;29.64;29.01;101355.09;5053271;28;20466;-55
2022/06/12 11:42:34;;;;;;;3.45;1.23;;;;;;;29.60;28.44;101356.31;5053584;28;20045;-51
2022/06/12 11:45:15;;;;;;;5.82;1.35;;;;;;;29.61;28.94;101352.66;5060012;28;20052;-51
2022/06/12 11:47:57;;;;;;;3.45;1.15;;;;;;;29.57;29.23;101356.56;5073238;28;20449;-50
2022/06/12 11:50:33;;;;;;;3.75;1.30;;;;;;;29.59;29.17;101359.97;5073357;28;20483;-54
2022/06/12 11:53:15;;;;;;;4.55;1.70;;;;;;;29.57;28.82;101351.22;5073574;28;20057;-51
2022/06/12 11:55:47;;;;;;;3.08;1.10;;;;;;;29.50;28.70;101341.00;5073424;28;20139;-54
2022/06/12 11:58:41;;;;;;;3.33;1.42;;;;;;;29.40;28.63;101337.34;5073081;28;20044;-53